sensor_id;sensor_type;location;lat;lon;timestamp;P1;durP1;ratioP1;P2;durP2;ratioP2
15012;SDS011;7603;49.432;11.418;2023-04-06T00:01:27;2.27;;;2.17;;
15012;SDS011;7603;49.432;11.418;2023-04-06T00:03:52;2.43;;;2.23;;
15012;SDS011;7603;49.432;11.418;2023-04-06T00:06:18;2.40;;;2.30;;
15012;SDS011;7603;49.432;11.418;2023-04-06T00:08:43;2.67;;;2.30;;
15012;SDS011;7603;49.432;11.418;2023-04-06T00:11:09;2.73;;;2.53;;
15012;SDS011;7603;49.432;11.418;2023-04-06T00:13:35;2.47;;;2.27;;
15012;SDS011;7603;49.432;11.418;2023-04-06T00:16:00;2.73;;;2.53;;
15012;SDS011;7603;49.432;11.418;2023-04-06T00:18:26;2.27;;;2.17;;
15012;SDS011;7603;49.432;11.418;2023-04-06T00:20:52;2.87;;;2.67;;
15012;SDS011;7603;49.432;11.418;2023-04-06T00:23:17;2.00;;;1.90;;
15012;SDS011;7603;49.432;11.418;2023-04-06T00:25:43;6.63;;;2.50;;
15012;SDS011;7603;49.432;11.418;2023-04-06T00:28:09;1.77;;;1.67;;
15012;SDS011;7603;49.432;11.418;2023-04-06T00:30:34;1.87;;;1.77;;
15012;SDS011;7603;49.432;11.418;2023-04-06T00:33:00;2.00;;;1.90;;
15012;SDS011;7603;49.432;11.418;2023-04-06T00:35:26;2.00;;;1.90;;
15012;SDS011;7603;49.432;11.418;2023-04-06T00:37:51;4.70;;;2.80;;
15012;SDS011;7603;49.432;11.418;2023-04-06T00:40:17;2.97;;;2.77;;
15012;SDS011;7603;49.432;11.418;2023-04-06T00:42:43;2.10;;;2.00;;
15012;SDS011;7603;49.432;11.418;2023-04-06T00:45:09;2.07;;;1.97;;
15012;SDS011;7603;49.432;11.418;2023-04-06T00:47:35;2.97;;;2.23;;
15012;SDS011;7603;49.432;11.418;2023-04-06T00:50:00;2.63;;;2.20;;
15012;SDS011;7603;49.432;11.418;2023-04-06T00:52:26;2.93;;;2.73;;
15012;SDS011;7603;49.432;11.418;2023-04-06T00:54:52;5.07;;;2.67;;
15012;SDS011;7603;49.432;11.418;2023-04-06T00:57:18;2.43;;;2.23;;
15012;SDS011;7603;49.432;11.418;2023-04-06T00:59:45;2.70;;;2.50;;
15012;SDS011;7603;49.432;11.418;2023-04-06T01:02:11;2.53;;;2.37;;
15012;SDS011;7603;49.432;11.418;2023-04-06T01:04:36;2.27;;;2.17;;
15012;SDS011;7603;49.432;11.418;2023-04-06T01:07:02;2.43;;;2.33;;
15012;SDS011;7603;49.432;11.418;2023-04-06T01:09:28;2.70;;;2.50;;
15012;SDS011;7603;49.432;11.418;2023-04-06T01:11:55;3.40;;;3.20;;
15012;SDS011;7603;49.432;11.418;2023-04-06T01:14:24;2.27;;;2.17;;
15012;SDS011;7603;49.432;11.418;2023-04-06T01:16:50;1.93;;;1.90;;
15012;SDS011;7603;49.432;11.418;2023-04-06T01:19:16;2.37;;;2.10;;
15012;SDS011;7603;49.432;11.418;2023-04-06T01:21:42;3.00;;;2.80;;
15012;SDS011;7603;49.432;11.418;2023-04-06T01:24:08;2.40;;;2.30;;
15012;SDS011;7603;49.432;11.418;2023-04-06T01:26:34;2.90;;;2.70;;
15012;SDS011;7603;49.432;11.418;2023-04-06T01:29:00;2.43;;;2.23;;
15012;SDS011;7603;49.432;11.418;2023-04-06T01:31:27;4.63;;;3.07;;
15012;SDS011;7603;49.432;11.418;2023-04-06T01:33:52;2.43;;;2.33;;
15012;SDS011;7603;49.432;11.418;2023-04-06T01:36:18;3.20;;;2.97;;
15012;SDS011;7603;49.432;11.418;2023-04-06T01:38:45;2.83;;;2.53;;
15012;SDS011;7603;49.432;11.418;2023-04-06T01:41:10;6.27;;;2.60;;
15012;SDS011;7603;49.432;11.418;2023-04-06T01:43:36;2.37;;;2.27;;
15012;SDS011;7603;49.432;11.418;2023-04-06T01:46:02;2.43;;;2.33;;
15012;SDS011;7603;49.432;11.418;2023-04-06T01:48:28;4.17;;;2.00;;
15012;SDS011;7603;49.432;11.418;2023-04-06T01:50:55;2.90;;;2.63;;
15012;SDS011;7603;49.432;11.418;2023-04-06T01:53:20;3.80;;;2.33;;
15012;SDS011;7603;49.432;11.418;2023-04-06T01:55:46;3.17;;;2.97;;
15012;SDS011;7603;49.432;11.418;2023-04-06T01:58:12;2.60;;;2.13;;
15012;SDS011;7603;49.432;11.418;2023-04-06T02:00:38;9.63;;;2.97;;
15012;SDS011;7603;49.432;11.418;2023-04-06T02:03:05;3.33;;;3.03;;
15012;SDS011;7603;49.432;11.418;2023-04-06T02:05:31;2.30;;;2.20;;
15012;SDS011;7603;49.432;11.418;2023-04-06T02:08:02;3.87;;;2.70;;
15012;SDS011;7603;49.432;11.418;2023-04-06T02:10:31;2.20;;;2.00;;
15012;SDS011;7603;49.432;11.418;2023-04-06T02:12:58;3.97;;;2.20;;
15012;SDS011;7603;49.432;11.418;2023-04-06T02:15:23;2.23;;;2.10;;
15012;SDS011;7603;49.432;11.418;2023-04-06T02:17:50;2.60;;;2.40;;
15012;SDS011;7603;49.432;11.418;2023-04-06T02:20:16;2.53;;;2.43;;
15012;SDS011;7603;49.432;11.418;2023-04-06T02:22:42;2.50;;;2.30;;
15012;SDS011;7603;49.432;11.418;2023-04-06T02:25:08;2.63;;;2.43;;
15012;SDS011;7603;49.432;11.418;2023-04-06T02:27:33;2.77;;;2.57;;
15012;SDS011;7603;49.432;11.418;2023-04-06T02:29:59;2.43;;;2.17;;
15012;SDS011;7603;49.432;11.418;2023-04-06T02:32:25;2.30;;;2.20;;
15012;SDS011;7603;49.432;11.418;2023-04-06T02:34:51;2.67;;;2.33;;
15012;SDS011;7603;49.432;11.418;2023-04-06T02:37:16;5.67;;;2.83;;
15012;SDS011;7603;49.432;11.418;2023-04-06T02:39:42;3.00;;;2.80;;
15012;SDS011;7603;49.432;11.418;2023-04-06T02:42:08;2.90;;;2.70;;
15012;SDS011;7603;49.432;11.418;2023-04-06T02:44:33;2.17;;;2.07;;
15012;SDS011;7603;49.432;11.418;2023-04-06T02:46:59;3.53;;;2.43;;
15012;SDS011;7603;49.432;11.418;2023-04-06T02:49:25;2.50;;;2.33;;
15012;SDS011;7603;49.432;11.418;2023-04-06T02:51:51;2.03;;;1.93;;
15012;SDS011;7603;49.432;11.418;2023-04-06T02:54:16;2.17;;;2.07;;
15012;SDS011;7603;49.432;11.418;2023-04-06T02:56:42;2.07;;;1.87;;
15012;SDS011;7603;49.432;11.418;2023-04-06T02:59:08;3.73;;;2.30;;
15012;SDS011;7603;49.432;11.418;2023-04-06T03:01:34;2.70;;;2.47;;
15012;SDS011;7603;49.432;11.418;2023-04-06T03:04:00;4.60;;;3.40;;
15012;SDS011;7603;49.432;11.418;2023-04-06T03:06:25;3.63;;;2.30;;
15012;SDS011;7603;49.432;11.418;2023-04-06T03:08:51;2.27;;;2.17;;
15012;SDS011;7603;49.432;11.418;2023-04-06T03:11:17;2.60;;;2.50;;
15012;SDS011;7603;49.432;11.418;2023-04-06T03:13:42;2.13;;;2.00;;
15012;SDS011;7603;49.432;11.418;2023-04-06T03:16:08;2.70;;;2.50;;
15012;SDS011;7603;49.432;11.418;2023-04-06T03:18:33;2.03;;;1.80;;
15012;SDS011;7603;49.432;11.418;2023-04-06T03:20:59;3.10;;;2.90;;
15012;SDS011;7603;49.432;11.418;2023-04-06T03:23:26;2.30;;;2.20;;
15012;SDS011;7603;49.432;11.418;2023-04-06T03:25:51;2.70;;;2.50;;
15012;SDS011;7603;49.432;11.418;2023-04-06T03:28:17;1.83;;;1.73;;
15012;SDS011;7603;49.432;11.418;2023-04-06T03:30:42;2.73;;;2.53;;
15012;SDS011;7603;49.432;11.418;2023-04-06T03:33:08;2.63;;;2.43;;
15012;SDS011;7603;49.432;11.418;2023-04-06T03:35:33;2.33;;;1.83;;
15012;SDS011;7603;49.432;11.418;2023-04-06T03:37:59;2.20;;;2.10;;
15012;SDS011;7603;49.432;11.418;2023-04-06T03:40:25;2.60;;;2.37;;
15012;SDS011;7603;49.432;11.418;2023-04-06T03:42:50;2.13;;;2.03;;
15012;SDS011;7603;49.432;11.418;2023-04-06T03:45:16;2.73;;;1.77;;
15012;SDS011;7603;49.432;11.418;2023-04-06T03:47:42;2.70;;;2.50;;
15012;SDS011;7603;49.432;11.418;2023-04-06T03:50:07;3.07;;;2.60;;
15012;SDS011;7603;49.432;11.418;2023-04-06T03:52:34;3.43;;;3.10;;
15012;SDS011;7603;49.432;11.418;2023-04-06T03:55:00;4.70;;;2.67;;
15012;SDS011;7603;49.432;11.418;2023-04-06T03:57:25;2.60;;;2.40;;
15012;SDS011;7603;49.432;11.418;2023-04-06T03:59:51;3.13;;;2.80;;
15012;SDS011;7603;49.432;11.418;2023-04-06T04:02:17;3.60;;;2.43;;
15012;SDS011;7603;49.432;11.418;2023-04-06T04:04:43;6.67;;;3.00;;
15012;SDS011;7603;49.432;11.418;2023-04-06T04:07:08;2.77;;;2.57;;
15012;SDS011;7603;49.432;11.418;2023-04-06T04:09:34;3.07;;;2.33;;
15012;SDS011;7603;49.432;11.418;2023-04-06T04:12:00;4.57;;;2.80;;
15012;SDS011;7603;49.432;11.418;2023-04-06T04:14:25;2.63;;;2.40;;
15012;SDS011;7603;49.432;11.418;2023-04-06T04:16:51;3.53;;;3.23;;
15012;SDS011;7603;49.432;11.418;2023-04-06T04:19:17;4.50;;;4.07;;
15012;SDS011;7603;49.432;11.418;2023-04-06T04:21:43;3.10;;;2.77;;
15012;SDS011;7603;49.432;11.418;2023-04-06T04:24:10;2.53;;;1.70;;
15012;SDS011;7603;49.432;11.418;2023-04-06T04:26:36;3.27;;;2.97;;
15012;SDS011;7603;49.432;11.418;2023-04-06T04:29:03;4.67;;;2.73;;
15012;SDS011;7603;49.432;11.418;2023-04-06T04:31:29;5.60;;;3.30;;
15012;SDS011;7603;49.432;11.418;2023-04-06T04:33:55;4.37;;;3.47;;
15012;SDS011;7603;49.432;11.418;2023-04-06T04:36:20;7.30;;;2.70;;
15012;SDS011;7603;49.432;11.418;2023-04-06T04:38:46;3.03;;;2.73;;
15012;SDS011;7603;49.432;11.418;2023-04-06T04:41:11;3.33;;;3.10;;
15012;SDS011;7603;49.432;11.418;2023-04-06T04:43:37;2.40;;;2.13;;
15012;SDS011;7603;49.432;11.418;2023-04-06T04:46:03;3.27;;;2.73;;
15012;SDS011;7603;49.432;11.418;2023-04-06T04:48:29;4.70;;;3.20;;
15012;SDS011;7603;49.432;11.418;2023-04-06T04:50:55;2.60;;;2.40;;
15012;SDS011;7603;49.432;11.418;2023-04-06T04:53:21;3.53;;;3.07;;
15012;SDS011;7603;49.432;11.418;2023-04-06T04:55:46;2.73;;;2.10;;
15012;SDS011;7603;49.432;11.418;2023-04-06T04:58:12;2.60;;;2.50;;
15012;SDS011;7603;49.432;11.418;2023-04-06T05:00:41;2.73;;;2.63;;
15012;SDS011;7603;49.432;11.418;2023-04-06T05:03:07;2.40;;;2.30;;
15012;SDS011;7603;49.432;11.418;2023-04-06T05:05:34;2.67;;;2.00;;
15012;SDS011;7603;49.432;11.418;2023-04-06T05:08:00;3.10;;;2.50;;
15012;SDS011;7603;49.432;11.418;2023-04-06T05:10:26;2.03;;;1.97;;
15012;SDS011;7603;49.432;11.418;2023-04-06T05:12:52;4.30;;;2.30;;
15012;SDS011;7603;49.432;11.418;2023-04-06T05:15:17;3.37;;;3.07;;
15012;SDS011;7603;49.432;11.418;2023-04-06T05:17:43;2.93;;;2.67;;
15012;SDS011;7603;49.432;11.418;2023-04-06T05:20:09;2.30;;;2.20;;
15012;SDS011;7603;49.432;11.418;2023-04-06T05:22:35;2.87;;;2.60;;
15012;SDS011;7603;49.432;11.418;2023-04-06T05:25:01;3.03;;;2.50;;
15012;SDS011;7603;49.432;11.418;2023-04-06T05:27:27;6.07;;;1.87;;
15012;SDS011;7603;49.432;11.418;2023-04-06T05:29:53;3.23;;;3.03;;
15012;SDS011;7603;49.432;11.418;2023-04-06T05:32:19;6.60;;;3.47;;
15012;SDS011;7603;49.432;11.418;2023-04-06T05:34:47;3.07;;;2.93;;
15012;SDS011;7603;49.432;11.418;2023-04-06T05:37:13;2.60;;;2.40;;
15012;SDS011;7603;49.432;11.418;2023-04-06T05:39:39;5.43;;;3.80;;
15012;SDS011;7603;49.432;11.418;2023-04-06T05:42:05;2.70;;;2.60;;
15012;SDS011;7603;49.432;11.418;2023-04-06T05:44:31;2.70;;;2.50;;
15012;SDS011;7603;49.432;11.418;2023-04-06T05:46:57;3.23;;;3.03;;
15012;SDS011;7603;49.432;11.418;2023-04-06T05:49:22;3.10;;;2.90;;
15012;SDS011;7603;49.432;11.418;2023-04-06T05:51:48;2.50;;;2.40;;
15012;SDS011;7603;49.432;11.418;2023-04-06T05:54:13;2.90;;;2.70;;
15012;SDS011;7603;49.432;11.418;2023-04-06T05:56:39;3.43;;;3.13;;
15012;SDS011;7603;49.432;11.418;2023-04-06T05:59:05;2.50;;;2.30;;
15012;SDS011;7603;49.432;11.418;2023-04-06T06:01:30;11.43;;;3.17;;
15012;SDS011;7603;49.432;11.418;2023-04-06T06:03:57;41.43;;;3.03;;
15012;SDS011;7603;49.432;11.418;2023-04-06T06:06:23;6.23;;;3.73;;
15012;SDS011;7603;49.432;11.418;2023-04-06T06:08:48;2.93;;;2.70;;
15012;SDS011;7603;49.432;11.418;2023-04-06T06:11:14;3.03;;;2.83;;
15012;SDS011;7603;49.432;11.418;2023-04-06T06:13:40;2.67;;;2.53;;
15012;SDS011;7603;49.432;11.418;2023-04-06T06:16:05;3.83;;;3.53;;
15012;SDS011;7603;49.432;11.418;2023-04-06T06:18:31;5.37;;;2.83;;
15012;SDS011;7603;49.432;11.418;2023-04-06T06:20:57;5.93;;;3.50;;
15012;SDS011;7603;49.432;11.418;2023-04-06T06:23:22;3.57;;;3.30;;
15012;SDS011;7603;49.432;11.418;2023-04-06T06:25:48;3.83;;;3.47;;
15012;SDS011;7603;49.432;11.418;2023-04-06T06:28:14;3.73;;;3.43;;
15012;SDS011;7603;49.432;11.418;2023-04-06T06:30:39;4.57;;;3.47;;
15012;SDS011;7603;49.432;11.418;2023-04-06T06:33:05;3.77;;;3.50;;
15012;SDS011;7603;49.432;11.418;2023-04-06T06:35:30;3.00;;;2.60;;
15012;SDS011;7603;49.432;11.418;2023-04-06T06:37:56;6.67;;;3.87;;
15012;SDS011;7603;49.432;11.418;2023-04-06T06:40:22;6.23;;;4.77;;
15012;SDS011;7603;49.432;11.418;2023-04-06T06:42:49;4.33;;;3.87;;
15012;SDS011;7603;49.432;11.418;2023-04-06T06:45:16;10.07;;;3.93;;
15012;SDS011;7603;49.432;11.418;2023-04-06T06:47:41;6.93;;;4.67;;
15012;SDS011;7603;49.432;11.418;2023-04-06T06:50:07;5.13;;;3.60;;
15012;SDS011;7603;49.432;11.418;2023-04-06T06:52:33;8.87;;;4.90;;
15012;SDS011;7603;49.432;11.418;2023-04-06T06:54:59;7.07;;;4.70;;
15012;SDS011;7603;49.432;11.418;2023-04-06T06:57:25;6.13;;;4.37;;
15012;SDS011;7603;49.432;11.418;2023-04-06T06:59:51;7.57;;;4.60;;
15012;SDS011;7603;49.432;11.418;2023-04-06T07:02:16;7.63;;;3.27;;
15012;SDS011;7603;49.432;11.418;2023-04-06T07:04:42;7.97;;;4.60;;
15012;SDS011;7603;49.432;11.418;2023-04-06T07:07:07;11.70;;;6.67;;
15012;SDS011;7603;49.432;11.418;2023-04-06T07:09:33;9.50;;;5.90;;
15012;SDS011;7603;49.432;11.418;2023-04-06T07:11:59;33.22;;;6.65;;
15012;SDS011;7603;49.432;11.418;2023-04-06T07:14:26;9.90;;;7.28;;
15012;SDS011;7603;49.432;11.418;2023-04-06T07:16:52;5.27;;;4.50;;
15012;SDS011;7603;49.432;11.418;2023-04-06T07:19:17;7.85;;;4.38;;
15012;SDS011;7603;49.432;11.418;2023-04-06T07:21:43;5.05;;;4.53;;
15012;SDS011;7603;49.432;11.418;2023-04-06T07:24:09;4.05;;;3.70;;
15012;SDS011;7603;49.432;11.418;2023-04-06T07:26:34;7.18;;;4.35;;
15012;SDS011;7603;49.432;11.418;2023-04-06T07:29:00;8.40;;;5.35;;
15012;SDS011;7603;49.432;11.418;2023-04-06T07:31:26;9.88;;;4.07;;
15012;SDS011;7603;49.432;11.418;2023-04-06T07:33:51;6.55;;;4.43;;
15012;SDS011;7603;49.432;11.418;2023-04-06T07:36:17;4.47;;;4.00;;
15012;SDS011;7603;49.432;11.418;2023-04-06T07:38:43;6.72;;;3.03;;
15012;SDS011;7603;49.432;11.418;2023-04-06T07:41:10;4.95;;;3.53;;
15012;SDS011;7603;49.432;11.418;2023-04-06T07:43:36;4.47;;;3.50;;
15012;SDS011;7603;49.432;11.418;2023-04-06T07:46:02;6.03;;;3.50;;
15012;SDS011;7603;49.432;11.418;2023-04-06T07:48:28;4.50;;;3.58;;
15012;SDS011;7603;49.432;11.418;2023-04-06T07:51:00;4.60;;;3.78;;
15012;SDS011;7603;49.432;11.418;2023-04-06T07:53:27;4.22;;;3.78;;
15012;SDS011;7603;49.432;11.418;2023-04-06T07:55:53;3.58;;;3.28;;
15012;SDS011;7603;49.432;11.418;2023-04-06T07:58:18;2.90;;;2.67;;
15012;SDS011;7603;49.432;11.418;2023-04-06T08:00:44;6.18;;;3.47;;
15012;SDS011;7603;49.432;11.418;2023-04-06T08:03:09;11.00;;;4.20;;
15012;SDS011;7603;49.432;11.418;2023-04-06T08:05:35;9.02;;;3.22;;
15012;SDS011;7603;49.432;11.418;2023-04-06T08:08:01;3.75;;;3.40;;
15012;SDS011;7603;49.432;11.418;2023-04-06T08:10:26;3.15;;;2.50;;
15012;SDS011;7603;49.432;11.418;2023-04-06T08:12:52;3.17;;;2.95;;
15012;SDS011;7603;49.432;11.418;2023-04-06T08:15:17;5.10;;;3.80;;
15012;SDS011;7603;49.432;11.418;2023-04-06T08:17:43;3.53;;;2.88;;
15012;SDS011;7603;49.432;11.418;2023-04-06T08:20:09;3.45;;;2.47;;
15012;SDS011;7603;49.432;11.418;2023-04-06T08:22:35;4.50;;;2.70;;
15012;SDS011;7603;49.432;11.418;2023-04-06T08:25:00;4.50;;;2.58;;
15012;SDS011;7603;49.432;11.418;2023-04-06T08:27:26;2.53;;;2.33;;
15012;SDS011;7603;49.432;11.418;2023-04-06T08:29:51;3.75;;;2.78;;
15012;SDS011;7603;49.432;11.418;2023-04-06T08:32:17;3.88;;;2.67;;
15012;SDS011;7603;49.432;11.418;2023-04-06T08:34:43;3.17;;;2.92;;
15012;SDS011;7603;49.432;11.418;2023-04-06T08:37:08;3.20;;;2.55;;
15012;SDS011;7603;49.432;11.418;2023-04-06T08:39:34;4.10;;;3.47;;
15012;SDS011;7603;49.432;11.418;2023-04-06T08:42:00;6.07;;;4.43;;
15012;SDS011;7603;49.432;11.418;2023-04-06T08:44:28;4.28;;;2.95;;
15012;SDS011;7603;49.432;11.418;2023-04-06T08:46:55;2.63;;;2.20;;
15012;SDS011;7603;49.432;11.418;2023-04-06T08:49:20;3.15;;;2.80;;
15012;SDS011;7603;49.432;11.418;2023-04-06T08:51:47;2.97;;;2.70;;
15012;SDS011;7603;49.432;11.418;2023-04-06T08:54:12;3.10;;;2.90;;
15012;SDS011;7603;49.432;11.418;2023-04-06T08:56:38;5.10;;;3.17;;
15012;SDS011;7603;49.432;11.418;2023-04-06T08:59:04;2.47;;;2.28;;
15012;SDS011;7603;49.432;11.418;2023-04-06T09:01:31;2.70;;;2.50;;
15012;SDS011;7603;49.432;11.418;2023-04-06T09:04:03;2.13;;;2.03;;
15012;SDS011;7603;49.432;11.418;2023-04-06T09:06:33;3.35;;;3.05;;
15012;SDS011;7603;49.432;11.418;2023-04-06T09:09:02;3.92;;;3.22;;
15012;SDS011;7603;49.432;11.418;2023-04-06T09:11:28;3.60;;;2.55;;
15012;SDS011;7603;49.432;11.418;2023-04-06T09:13:54;2.80;;;2.60;;
15012;SDS011;7603;49.432;11.418;2023-04-06T09:16:21;2.92;;;2.72;;
15012;SDS011;7603;49.432;11.418;2023-04-06T09:18:48;3.60;;;2.60;;
15012;SDS011;7603;49.432;11.418;2023-04-06T09:21:16;2.70;;;2.50;;
15012;SDS011;7603;49.432;11.418;2023-04-06T09:23:45;4.20;;;3.58;;
15012;SDS011;7603;49.432;11.418;2023-04-06T09:26:14;3.03;;;2.83;;
15012;SDS011;7603;49.432;11.418;2023-04-06T09:31:13;3.17;;;2.67;;
15012;SDS011;7603;49.432;11.418;2023-04-06T09:33:41;2.90;;;2.55;;
15012;SDS011;7603;49.432;11.418;2023-04-06T09:36:10;3.92;;;3.63;;
15012;SDS011;7603;49.432;11.418;2023-04-06T09:38:37;2.72;;;2.53;;
15012;SDS011;7603;49.432;11.418;2023-04-06T09:41:04;3.30;;;2.72;;
15012;SDS011;7603;49.432;11.418;2023-04-06T09:43:30;3.00;;;2.80;;
15012;SDS011;7603;49.432;11.418;2023-04-06T09:45:56;2.45;;;2.25;;
15012;SDS011;7603;49.432;11.418;2023-04-06T09:48:24;2.70;;;2.50;;
15012;SDS011;7603;49.432;11.418;2023-04-06T09:50:50;4.10;;;3.00;;
15012;SDS011;7603;49.432;11.418;2023-04-06T09:53:24;4.22;;;2.60;;
15012;SDS011;7603;49.432;11.418;2023-04-06T09:55:52;3.42;;;3.22;;
15012;SDS011;7603;49.432;11.418;2023-04-06T09:58:22;2.45;;;2.25;;
15012;SDS011;7603;49.432;11.418;2023-04-06T10:01:00;2.58;;;2.38;;
15012;SDS011;7603;49.432;11.418;2023-04-06T10:06:04;3.45;;;3.15;;
15012;SDS011;7603;49.432;11.418;2023-04-06T10:08:33;3.13;;;2.92;;
15012;SDS011;7603;49.432;11.418;2023-04-06T10:11:01;2.70;;;2.60;;
15012;SDS011;7603;49.432;11.418;2023-04-06T10:13:27;5.88;;;3.53;;
15012;SDS011;7603;49.432;11.418;2023-04-06T10:15:53;3.40;;;2.33;;
15012;SDS011;7603;49.432;11.418;2023-04-06T10:18:20;4.72;;;2.65;;
15012;SDS011;7603;49.432;11.418;2023-04-06T10:21:05;2.50;;;2.28;;
15012;SDS011;7603;49.432;11.418;2023-04-06T10:23:52;2.70;;;2.50;;
15012;SDS011;7603;49.432;11.418;2023-04-06T10:26:22;3.08;;;2.80;;
15012;SDS011;7603;49.432;11.418;2023-04-06T10:28:49;3.60;;;3.00;;
15012;SDS011;7603;49.432;11.418;2023-04-06T10:31:15;2.95;;;2.75;;
15012;SDS011;7603;49.432;11.418;2023-04-06T10:36:32;3.05;;;2.15;;
15012;SDS011;7603;49.432;11.418;2023-04-06T10:39:08;2.75;;;2.55;;
15012;SDS011;7603;49.432;11.418;2023-04-06T10:41:40;2.65;;;2.45;;
15012;SDS011;7603;49.432;11.418;2023-04-06T10:44:07;2.75;;;2.08;;
15012;SDS011;7603;49.432;11.418;2023-04-06T10:46:33;2.33;;;2.22;;
15012;SDS011;7603;49.432;11.418;2023-04-06T10:49:11;2.75;;;2.55;;
15012;SDS011;7603;49.432;11.418;2023-04-06T10:51:37;2.30;;;2.13;;
15012;SDS011;7603;49.432;11.418;2023-04-06T10:54:04;2.38;;;2.28;;
15012;SDS011;7603;49.432;11.418;2023-04-06T10:56:31;2.13;;;2.03;;
15012;SDS011;7603;49.432;11.418;2023-04-06T10:59:01;2.35;;;2.20;;
15012;SDS011;7603;49.432;11.418;2023-04-06T11:01:27;2.33;;;2.13;;
15012;SDS011;7603;49.432;11.418;2023-04-06T11:03:54;2.22;;;2.13;;
15012;SDS011;7603;49.432;11.418;2023-04-06T11:06:27;2.50;;;2.30;;
15012;SDS011;7603;49.432;11.418;2023-04-06T11:08:55;3.10;;;2.90;;
15012;SDS011;7603;49.432;11.418;2023-04-06T11:11:23;3.15;;;2.95;;
15012;SDS011;7603;49.432;11.418;2023-04-06T11:13:58;2.30;;;2.20;;
15012;SDS011;7603;49.432;11.418;2023-04-06T11:16:25;3.15;;;2.95;;
15012;SDS011;7603;49.432;11.418;2023-04-06T11:18:53;2.38;;;2.28;;
15012;SDS011;7603;49.432;11.418;2023-04-06T11:29:08;3.08;;;2.88;;
15012;SDS011;7603;49.432;11.418;2023-04-06T11:31:39;3.30;;;3.10;;
15012;SDS011;7603;49.432;11.418;2023-04-06T11:34:12;3.15;;;2.95;;
15012;SDS011;7603;49.432;11.418;2023-04-06T11:36:45;2.80;;;2.58;;
15012;SDS011;7603;49.432;11.418;2023-04-06T11:39:13;3.10;;;2.90;;
15012;SDS011;7603;49.432;11.418;2023-04-06T11:41:46;2.90;;;2.75;;
15012;SDS011;7603;49.432;11.418;2023-04-06T11:44:28;3.00;;;2.75;;
15012;SDS011;7603;49.432;11.418;2023-04-06T11:46:53;3.03;;;2.83;;
15012;SDS011;7603;49.432;11.418;2023-04-06T11:49:21;2.42;;;2.30;;
15012;SDS011;7603;49.432;11.418;2023-04-06T11:51:47;2.22;;;2.13;;
15012;SDS011;7603;49.432;11.418;2023-04-06T11:54:12;3.30;;;3.10;;
15012;SDS011;7603;49.432;11.418;2023-04-06T11:56:38;3.87;;;3.57;;
15012;SDS011;7603;49.432;11.418;2023-04-06T11:59:04;2.63;;;2.42;;
15012;SDS011;7603;49.432;11.418;2023-04-06T12:01:29;5.03;;;3.80;;
15012;SDS011;7603;49.432;11.418;2023-04-06T12:03:55;3.08;;;2.88;;
15012;SDS011;7603;49.432;11.418;2023-04-06T12:06:21;2.40;;;2.25;;
15012;SDS011;7603;49.432;11.418;2023-04-06T12:08:47;4.97;;;3.22;;
15012;SDS011;7603;49.432;11.418;2023-04-06T12:11:13;2.92;;;2.72;;
15012;SDS011;7603;49.432;11.418;2023-04-06T12:13:39;2.88;;;2.40;;
15012;SDS011;7603;49.432;11.418;2023-04-06T12:16:05;2.50;;;2.40;;
15012;SDS011;7603;49.432;11.418;2023-04-06T12:18:30;3.37;;;2.70;;
15012;SDS011;7603;49.432;11.418;2023-04-06T12:20:56;3.20;;;2.88;;
15012;SDS011;7603;49.432;11.418;2023-04-06T12:23:22;2.40;;;2.30;;
15012;SDS011;7603;49.432;11.418;2023-04-06T12:25:47;2.42;;;2.33;;
15012;SDS011;7603;49.432;11.418;2023-04-06T12:28:13;2.38;;;2.28;;
15012;SDS011;7603;49.432;11.418;2023-04-06T12:30:39;2.85;;;2.60;;
15012;SDS011;7603;49.432;11.418;2023-04-06T12:33:06;2.50;;;2.40;;
15012;SDS011;7603;49.432;11.418;2023-04-06T12:35:34;2.70;;;2.60;;
15012;SDS011;7603;49.432;11.418;2023-04-06T12:38:01;2.40;;;2.22;;
15012;SDS011;7603;49.432;11.418;2023-04-06T12:40:27;2.50;;;2.40;;
15012;SDS011;7603;49.432;11.418;2023-04-06T12:42:53;14.73;;;2.88;;
15012;SDS011;7603;49.432;11.418;2023-04-06T12:45:18;3.03;;;2.83;;
15012;SDS011;7603;49.432;11.418;2023-04-06T12:47:44;2.53;;;2.42;;
15012;SDS011;7603;49.432;11.418;2023-04-06T12:50:10;2.75;;;2.65;;
15012;SDS011;7603;49.432;11.418;2023-04-06T12:52:35;2.20;;;2.10;;
15012;SDS011;7603;49.432;11.418;2023-04-06T12:55:02;2.78;;;2.67;;
15012;SDS011;7603;49.432;11.418;2023-04-06T12:57:28;2.55;;;2.42;;
15012;SDS011;7603;49.432;11.418;2023-04-06T12:59:53;2.40;;;2.30;;
15012;SDS011;7603;49.432;11.418;2023-04-06T13:02:19;2.30;;;2.20;;
15012;SDS011;7603;49.432;11.418;2023-04-06T13:04:46;2.40;;;2.30;;
15012;SDS011;7603;49.432;11.418;2023-04-06T13:07:11;2.85;;;2.65;;
15012;SDS011;7603;49.432;11.418;2023-04-06T13:09:37;2.30;;;2.20;;
15012;SDS011;7603;49.432;11.418;2023-04-06T13:12:03;2.60;;;2.50;;
15012;SDS011;7603;49.432;11.418;2023-04-06T13:14:28;2.67;;;2.35;;
15012;SDS011;7603;49.432;11.418;2023-04-06T13:16:54;2.30;;;2.17;;
15012;SDS011;7603;49.432;11.418;2023-04-06T13:19:20;2.45;;;2.33;;
15012;SDS011;7603;49.432;11.418;2023-04-06T13:21:46;3.03;;;2.83;;
15012;SDS011;7603;49.432;11.418;2023-04-06T13:24:12;2.40;;;2.30;;
15012;SDS011;7603;49.432;11.418;2023-04-06T13:26:37;2.53;;;2.30;;
15012;SDS011;7603;49.432;11.418;2023-04-06T13:29:03;2.58;;;2.38;;
15012;SDS011;7603;49.432;11.418;2023-04-06T13:31:29;2.17;;;2.08;;
15012;SDS011;7603;49.432;11.418;2023-04-06T13:33:54;2.30;;;2.20;;
15012;SDS011;7603;49.432;11.418;2023-04-06T13:36:20;2.38;;;2.28;;
15012;SDS011;7603;49.432;11.418;2023-04-06T13:38:46;2.58;;;2.38;;
15012;SDS011;7603;49.432;11.418;2023-04-06T13:41:21;3.13;;;2.92;;
15012;SDS011;7603;49.432;11.418;2023-04-06T13:43:47;2.72;;;2.53;;
15012;SDS011;7603;49.432;11.418;2023-04-06T13:46:13;2.90;;;2.70;;
15012;SDS011;7603;49.432;11.418;2023-04-06T13:48:39;2.90;;;2.70;;
15012;SDS011;7603;49.432;11.418;2023-04-06T13:51:08;2.72;;;2.55;;
15012;SDS011;7603;49.432;11.418;2023-04-06T13:53:34;3.22;;;2.90;;
15012;SDS011;7603;49.432;11.418;2023-04-06T13:56:00;3.85;;;3.55;;
15012;SDS011;7603;49.432;11.418;2023-04-06T13:58:26;3.20;;;3.00;;
15012;SDS011;7603;49.432;11.418;2023-04-06T14:00:51;2.72;;;2.53;;
15012;SDS011;7603;49.432;11.418;2023-04-06T14:03:17;3.70;;;3.08;;
15012;SDS011;7603;49.432;11.418;2023-04-06T14:05:44;3.08;;;2.88;;
15012;SDS011;7603;49.432;11.418;2023-04-06T14:08:10;2.92;;;2.60;;
15012;SDS011;7603;49.432;11.418;2023-04-06T14:10:36;3.53;;;3.33;;
15012;SDS011;7603;49.432;11.418;2023-04-06T14:13:03;3.15;;;2.88;;
15012;SDS011;7603;49.432;11.418;2023-04-06T14:15:29;2.70;;;2.60;;
15012;SDS011;7603;49.432;11.418;2023-04-06T14:17:55;3.10;;;2.90;;
15012;SDS011;7603;49.432;11.418;2023-04-06T14:20:20;2.65;;;2.45;;
15012;SDS011;7603;49.432;11.418;2023-04-06T14:22:46;2.47;;;2.33;;
15012;SDS011;7603;49.432;11.418;2023-04-06T14:25:13;2.63;;;2.47;;
15012;SDS011;7603;49.432;11.418;2023-04-06T14:27:40;2.80;;;2.60;;
15012;SDS011;7603;49.432;11.418;2023-04-06T14:30:07;2.65;;;2.45;;
15012;SDS011;7603;49.432;11.418;2023-04-06T14:32:33;3.08;;;2.88;;
15012;SDS011;7603;49.432;11.418;2023-04-06T14:34:59;2.83;;;2.67;;
15012;SDS011;7603;49.432;11.418;2023-04-06T14:37:25;2.80;;;2.60;;
15012;SDS011;7603;49.432;11.418;2023-04-06T14:39:51;2.78;;;2.58;;
15012;SDS011;7603;49.432;11.418;2023-04-06T14:42:16;2.92;;;2.72;;
15012;SDS011;7603;49.432;11.418;2023-04-06T14:44:42;2.25;;;2.15;;
15012;SDS011;7603;49.432;11.418;2023-04-06T14:47:14;2.78;;;2.58;;
15012;SDS011;7603;49.432;11.418;2023-04-06T14:49:45;2.70;;;2.50;;
15012;SDS011;7603;49.432;11.418;2023-04-06T14:52:15;4.32;;;3.80;;
15012;SDS011;7603;49.432;11.418;2023-04-06T14:54:41;5.93;;;4.50;;
15012;SDS011;7603;49.432;11.418;2023-04-06T14:57:07;4.05;;;3.28;;
15012;SDS011;7603;49.432;11.418;2023-04-06T14:59:32;4.40;;;3.97;;